sensor_id;sensor_type;location;lat;lon;timestamp;temperature;humidity
12039;DHT22;6080;48.818;9.526;2022-08-24T00:01:03;16.60;99.90
12039;DHT22;6080;48.818;9.526;2022-08-24T00:03:31;16.50;99.90
12039;DHT22;6080;48.818;9.526;2022-08-24T00:05:58;16.40;99.90
12039;DHT22;6080;48.818;9.526;2022-08-24T00:08:24;16.40;99.90
12039;DHT22;6080;48.818;9.526;2022-08-24T00:10:51;16.40;99.90
12039;DHT22;6080;48.818;9.526;2022-08-24T00:13:17;16.40;99.90
12039;DHT22;6080;48.818;9.526;2022-08-24T00:15:43;16.30;99.90
12039;DHT22;6080;48.818;9.526;2022-08-24T00:18:10;16.20;99.90
12039;DHT22;6080;48.818;9.526;2022-08-24T00:20:36;16.20;99.90
12039;DHT22;6080;48.818;9.526;2022-08-24T00:23:03;16.10;99.90
12039;DHT22;6080;48.818;9.526;2022-08-24T00:25:29;16.10;99.90
12039;DHT22;6080;48.818;9.526;2022-08-24T00:27:56;16.00;99.90
12039;DHT22;6080;48.818;9.526;2022-08-24T00:30:23;16.10;99.90
12039;DHT22;6080;48.818;9.526;2022-08-24T00:32:49;16.10;99.90
12039;DHT22;6080;48.818;9.526;2022-08-24T00:35:16;16.00;99.90
12039;DHT22;6080;48.818;9.526;2022-08-24T00:37:44;15.90;99.90
12039;DHT22;6080;48.818;9.526;2022-08-24T00:40:19;15.70;99.90
12039;DHT22;6080;48.818;9.526;2022-08-24T00:42:45;15.70;99.90
12039;DHT22;6080;48.818;9.526;2022-08-24T00:45:14;15.60;99.90
12039;DHT22;6080;48.818;9.526;2022-08-24T00:48:45;15.50;99.90
12039;DHT22;6080;48.818;9.526;2022-08-24T00:51:13;15.50;99.90
12039;DHT22;6080;48.818;9.526;2022-08-24T00:53:48;15.50;99.90
12039;DHT22;6080;48.818;9.526;2022-08-24T00:56:26;15.50;99.90
12039;DHT22;6080;48.818;9.526;2022-08-24T00:58:58;15.50;99.90
12039;DHT22;6080;48.818;9.526;2022-08-24T01:01:26;15.50;99.90
12039;DHT22;6080;48.818;9.526;2022-08-24T01:03:53;15.50;99.90
12039;DHT22;6080;48.818;9.526;2022-08-24T01:06:20;15.40;99.90
12039;DHT22;6080;48.818;9.526;2022-08-24T01:08:45;15.20;99.90
12039;DHT22;6080;48.818;9.526;2022-08-24T01:11:15;15.30;99.90
12039;DHT22;6080;48.818;9.526;2022-08-24T01:13:45;15.40;99.90
12039;DHT22;6080;48.818;9.526;2022-08-24T01:16:13;15.40;99.90
12039;DHT22;6080;48.818;9.526;2022-08-24T01:18:40;15.40;99.90
12039;DHT22;6080;48.818;9.526;2022-08-24T01:21:16;15.40;99.90
12039;DHT22;6080;48.818;9.526;2022-08-24T01:23:45;15.30;99.90
12039;DHT22;6080;48.818;9.526;2022-08-24T01:26:18;15.30;99.90
12039;DHT22;6080;48.818;9.526;2022-08-24T01:28:48;15.30;99.90
12039;DHT22;6080;48.818;9.526;2022-08-24T01:31:21;15.10;99.90
12039;DHT22;6080;48.818;9.526;2022-08-24T01:33:52;15.00;99.90
12039;DHT22;6080;48.818;9.526;2022-08-24T01:36:30;15.10;99.90
12039;DHT22;6080;48.818;9.526;2022-08-24T01:39:01;15.10;99.90
12039;DHT22;6080;48.818;9.526;2022-08-24T01:41:28;15.10;99.90
12039;DHT22;6080;48.818;9.526;2022-08-24T01:43:55;15.10;99.90
12039;DHT22;6080;48.818;9.526;2022-08-24T01:46:21;15.00;99.90
12039;DHT22;6080;48.818;9.526;2022-08-24T01:48:46;15.00;99.90
12039;DHT22;6080;48.818;9.526;2022-08-24T01:51:12;14.90;99.90
12039;DHT22;6080;48.818;9.526;2022-08-24T01:53:38;14.90;99.90
12039;DHT22;6080;48.818;9.526;2022-08-24T01:56:04;14.90;99.90
12039;DHT22;6080;48.818;9.526;2022-08-24T01:58:31;14.90;99.90
12039;DHT22;6080;48.818;9.526;2022-08-24T02:00:56;14.90;99.90
12039;DHT22;6080;48.818;9.526;2022-08-24T02:03:22;14.90;99.90
12039;DHT22;6080;48.818;9.526;2022-08-24T02:05:49;15.00;99.90
12039;DHT22;6080;48.818;9.526;2022-08-24T02:08:15;15.00;99.90
12039;DHT22;6080;48.818;9.526;2022-08-24T02:10:41;15.00;99.90
12039;DHT22;6080;48.818;9.526;2022-08-24T02:13:07;14.90;99.90
12039;DHT22;6080;48.818;9.526;2022-08-24T02:15:37;14.90;99.90
12039;DHT22;6080;48.818;9.526;2022-08-24T02:18:08;14.70;99.90
12039;DHT22;6080;48.818;9.526;2022-08-24T02:20:35;14.70;99.90
12039;DHT22;6080;48.818;9.526;2022-08-24T02:23:03;14.70;99.90
12039;DHT22;6080;48.818;9.526;2022-08-24T02:25:29;14.60;99.90
12039;DHT22;6080;48.818;9.526;2022-08-24T02:27:56;14.50;99.90
12039;DHT22;6080;48.818;9.526;2022-08-24T02:30:22;14.40;99.90
12039;DHT22;6080;48.818;9.526;2022-08-24T02:32:48;14.40;99.90
12039;DHT22;6080;48.818;9.526;2022-08-24T02:35:15;14.40;99.90
12039;DHT22;6080;48.818;9.526;2022-08-24T02:37:42;14.40;99.90
12039;DHT22;6080;48.818;9.526;2022-08-24T02:40:08;14.30;99.90
12039;DHT22;6080;48.818;9.526;2022-08-24T02:42:35;14.40;99.90
12039;DHT22;6080;48.818;9.526;2022-08-24T02:45:01;14.40;99.90
12039;DHT22;6080;48.818;9.526;2022-08-24T02:47:27;14.40;99.90
12039;DHT22;6080;48.818;9.526;2022-08-24T02:49:53;14.40;99.90
12039;DHT22;6080;48.818;9.526;2022-08-24T02:52:19;14.30;99.90
12039;DHT22;6080;48.818;9.526;2022-08-24T02:54:45;14.30;99.90
12039;DHT22;6080;48.818;9.526;2022-08-24T02:57:11;14.20;99.90
12039;DHT22;6080;48.818;9.526;2022-08-24T02:59:37;14.20;99.90
12039;DHT22;6080;48.818;9.526;2022-08-24T03:02:04;14.10;99.90
12039;DHT22;6080;48.818;9.526;2022-08-24T03:04:30;14.10;99.90
12039;DHT22;6080;48.818;9.526;2022-08-24T03:06:56;14.10;99.90
12039;DHT22;6080;48.818;9.526;2022-08-24T03:09:24;14.00;99.90
12039;DHT22;6080;48.818;9.526;2022-08-24T03:11:49;14.00;99.90
12039;DHT22;6080;48.818;9.526;2022-08-24T03:14:15;14.00;99.90
12039;DHT22;6080;48.818;9.526;2022-08-24T03:16:42;13.90;99.90
12039;DHT22;6080;48.818;9.526;2022-08-24T03:19:08;13.90;99.90
12039;DHT22;6080;48.818;9.526;2022-08-24T03:21:34;13.80;99.90
12039;DHT22;6080;48.818;9.526;2022-08-24T03:24:00;13.70;99.90
12039;DHT22;6080;48.818;9.526;2022-08-24T03:26:26;13.70;99.90
12039;DHT22;6080;48.818;9.526;2022-08-24T03:28:52;13.70;99.90
12039;DHT22;6080;48.818;9.526;2022-08-24T03:31:18;13.70;99.90
12039;DHT22;6080;48.818;9.526;2022-08-24T03:33:44;13.70;99.90
12039;DHT22;6080;48.818;9.526;2022-08-24T03:36:10;13.70;99.90
12039;DHT22;6080;48.818;9.526;2022-08-24T03:38:36;13.70;99.90
12039;DHT22;6080;48.818;9.526;2022-08-24T03:41:02;13.70;99.90
12039;DHT22;6080;48.818;9.526;2022-08-24T03:43:28;13.70;99.90
12039;DHT22;6080;48.818;9.526;2022-08-24T03:46:23;13.70;99.90
12039;DHT22;6080;48.818;9.526;2022-08-24T03:48:50;13.70;99.90
12039;DHT22;6080;48.818;9.526;2022-08-24T03:51:19;13.70;99.90
12039;DHT22;6080;48.818;9.526;2022-08-24T03:53:45;13.70;99.90
12039;DHT22;6080;48.818;9.526;2022-08-24T03:56:11;13.70;99.90
12039;DHT22;6080;48.818;9.526;2022-08-24T03:58:39;13.60;99.90
12039;DHT22;6080;48.818;9.526;2022-08-24T04:01:07;13.70;99.90
12039;DHT22;6080;48.818;9.526;2022-08-24T04:03:37;13.60;99.90
12039;DHT22;6080;48.818;9.526;2022-08-24T04:06:05;13.60;99.90
12039;DHT22;6080;48.818;9.526;2022-08-24T04:08:33;13.50;99.90
12039;DHT22;6080;48.818;9.526;2022-08-24T04:11:00;13.40;99.90
12039;DHT22;6080;48.818;9.526;2022-08-24T04:13:26;13.40;99.90
12039;DHT22;6080;48.818;9.526;2022-08-24T04:15:57;13.40;99.90
12039;DHT22;6080;48.818;9.526;2022-08-24T04:18:23;13.30;99.90
12039;DHT22;6080;48.818;9.526;2022-08-24T04:20:49;13.40;99.90
12039;DHT22;6080;48.818;9.526;2022-08-24T04:23:15;13.30;99.90
12039;DHT22;6080;48.818;9.526;2022-08-24T04:25:44;13.30;99.90
12039;DHT22;6080;48.818;9.526;2022-08-24T04:28:11;13.20;99.90
12039;DHT22;6080;48.818;9.526;2022-08-24T04:30:42;13.20;99.90
12039;DHT22;6080;48.818;9.526;2022-08-24T04:33:09;13.30;99.90
12039;DHT22;6080;48.818;9.526;2022-08-24T04:35:42;13.40;99.90
12039;DHT22;6080;48.818;9.526;2022-08-24T04:38:10;13.40;99.90
12039;DHT22;6080;48.818;9.526;2022-08-24T04:40:41;13.40;99.90
12039;DHT22;6080;48.818;9.526;2022-08-24T04:43:07;13.40;99.90
12039;DHT22;6080;48.818;9.526;2022-08-24T04:45:37;13.40;99.90
12039;DHT22;6080;48.818;9.526;2022-08-24T04:48:04;13.40;99.90
12039;DHT22;6080;48.818;9.526;2022-08-24T04:50:34;13.50;99.90
12039;DHT22;6080;48.818;9.526;2022-08-24T04:53:01;13.50;99.90
12039;DHT22;6080;48.818;9.526;2022-08-24T04:55:30;13.60;99.90
12039;DHT22;6080;48.818;9.526;2022-08-24T04:57:57;13.70;99.90
12039;DHT22;6080;48.818;9.526;2022-08-24T05:00:23;13.70;99.90
12039;DHT22;6080;48.818;9.526;2022-08-24T05:02:49;13.90;99.90
12039;DHT22;6080;48.818;9.526;2022-08-24T05:05:15;14.00;99.90
12039;DHT22;6080;48.818;9.526;2022-08-24T05:07:41;14.10;99.90
12039;DHT22;6080;48.818;9.526;2022-08-24T05:10:09;14.20;99.90
12039;DHT22;6080;48.818;9.526;2022-08-24T05:12:36;14.30;99.90
12039;DHT22;6080;48.818;9.526;2022-08-24T05:15:03;14.50;99.90
12039;DHT22;6080;48.818;9.526;2022-08-24T05:17:30;14.80;99.90
12039;DHT22;6080;48.818;9.526;2022-08-24T05:19:57;15.10;99.90
12039;DHT22;6080;48.818;9.526;2022-08-24T05:22:24;15.50;99.90
12039;DHT22;6080;48.818;9.526;2022-08-24T05:24:50;16.00;99.90
12039;DHT22;6080;48.818;9.526;2022-08-24T05:27:16;16.40;99.90
12039;DHT22;6080;48.818;9.526;2022-08-24T05:29:44;16.80;99.90
12039;DHT22;6080;48.818;9.526;2022-08-24T05:32:10;17.20;99.90
12039;DHT22;6080;48.818;9.526;2022-08-24T05:34:36;17.50;99.90
12039;DHT22;6080;48.818;9.526;2022-08-24T05:37:02;17.80;99.90
12039;DHT22;6080;48.818;9.526;2022-08-24T05:39:29;18.00;99.90
12039;DHT22;6080;48.818;9.526;2022-08-24T05:41:56;18.20;99.90
12039;DHT22;6080;48.818;9.526;2022-08-24T05:44:24;18.50;99.90
12039;DHT22;6080;48.818;9.526;2022-08-24T05:46:50;18.80;99.90
12039;DHT22;6080;48.818;9.526;2022-08-24T05:49:16;19.10;99.90
12039;DHT22;6080;48.818;9.526;2022-08-24T05:51:41;19.30;99.90
12039;DHT22;6080;48.818;9.526;2022-08-24T05:54:08;19.60;99.90
12039;DHT22;6080;48.818;9.526;2022-08-24T05:56:34;19.90;99.90
12039;DHT22;6080;48.818;9.526;2022-08-24T05:59:00;20.10;99.90
12039;DHT22;6080;48.818;9.526;2022-08-24T06:01:27;20.40;99.90
12039;DHT22;6080;48.818;9.526;2022-08-24T06:03:54;20.60;99.90
12039;DHT22;6080;48.818;9.526;2022-08-24T06:06:22;21.00;99.90
12039;DHT22;6080;48.818;9.526;2022-08-24T06:08:50;21.20;99.90
12039;DHT22;6080;48.818;9.526;2022-08-24T06:11:28;21.70;99.90
12039;DHT22;6080;48.818;9.526;2022-08-24T06:13:58;22.10;99.90
12039;DHT22;6080;48.818;9.526;2022-08-24T06:16:25;22.50;99.90
12039;DHT22;6080;48.818;9.526;2022-08-24T06:18:51;22.70;99.90
12039;DHT22;6080;48.818;9.526;2022-08-24T06:21:20;22.90;99.90
12039;DHT22;6080;48.818;9.526;2022-08-24T06:23:47;23.00;99.90
12039;DHT22;6080;48.818;9.526;2022-08-24T06:26:13;23.40;99.90
12039;DHT22;6080;48.818;9.526;2022-08-24T06:28:58;23.50;99.90
12039;DHT22;6080;48.818;9.526;2022-08-24T06:31:25;23.70;99.90
12039;DHT22;6080;48.818;9.526;2022-08-24T06:33:52;24.00;99.90
12039;DHT22;6080;48.818;9.526;2022-08-24T06:36:19;24.10;99.90
12039;DHT22;6080;48.818;9.526;2022-08-24T06:38:46;24.30;99.90
12039;DHT22;6080;48.818;9.526;2022-08-24T06:41:13;24.50;99.90
12039;DHT22;6080;48.818;9.526;2022-08-24T06:43:39;24.50;99.90
12039;DHT22;6080;48.818;9.526;2022-08-24T06:46:05;24.30;99.90
12039;DHT22;6080;48.818;9.526;2022-08-24T06:48:31;24.40;99.90
12039;DHT22;6080;48.818;9.526;2022-08-24T06:50:57;24.20;99.90
12039;DHT22;6080;48.818;9.526;2022-08-24T06:53:24;24.20;99.90
12039;DHT22;6080;48.818;9.526;2022-08-24T06:55:53;24.20;99.90
12039;DHT22;6080;48.818;9.526;2022-08-24T06:58:21;24.40;99.90
12039;DHT22;6080;48.818;9.526;2022-08-24T07:00:47;24.70;99.90
12039;DHT22;6080;48.818;9.526;2022-08-24T07:03:14;24.60;99.90
12039;DHT22;6080;48.818;9.526;2022-08-24T07:05:40;24.60;99.80
12039;DHT22;6080;48.818;9.526;2022-08-24T07:08:07;24.60;99.90
12039;DHT22;6080;48.818;9.526;2022-08-24T07:10:33;24.70;99.90
12039;DHT22;6080;48.818;9.526;2022-08-24T07:12:59;25.30;99.10
12039;DHT22;6080;48.818;9.526;2022-08-24T07:15:25;25.40;98.60
12039;DHT22;6080;48.818;9.526;2022-08-24T07:17:51;25.70;98.10
12039;DHT22;6080;48.818;9.526;2022-08-24T07:20:18;25.70;96.40
12039;DHT22;6080;48.818;9.526;2022-08-24T07:22:44;25.60;97.20
12039;DHT22;6080;48.818;9.526;2022-08-24T07:25:11;25.70;97.00
12039;DHT22;6080;48.818;9.526;2022-08-24T07:27:37;25.80;96.30
12039;DHT22;6080;48.818;9.526;2022-08-24T07:30:05;26.30;95.80
12039;DHT22;6080;48.818;9.526;2022-08-24T07:32:32;26.70;94.20
12039;DHT22;6080;48.818;9.526;2022-08-24T07:34:58;26.80;94.20
12039;DHT22;6080;48.818;9.526;2022-08-24T07:37:25;27.20;92.90
12039;DHT22;6080;48.818;9.526;2022-08-24T07:39:51;27.50;92.60
12039;DHT22;6080;48.818;9.526;2022-08-24T07:42:17;27.40;90.60
12039;DHT22;6080;48.818;9.526;2022-08-24T07:44:43;26.90;91.70
12039;DHT22;6080;48.818;9.526;2022-08-24T07:47:09;27.10;91.00
12039;DHT22;6080;48.818;9.526;2022-08-24T07:49:34;27.60;90.20
12039;DHT22;6080;48.818;9.526;2022-08-24T07:52:00;28.00;89.50
12039;DHT22;6080;48.818;9.526;2022-08-24T07:54:26;27.80;86.20
12039;DHT22;6080;48.818;9.526;2022-08-24T07:56:53;27.60;86.70
12039;DHT22;6080;48.818;9.526;2022-08-24T07:59:21;27.40;87.40
12039;DHT22;6080;48.818;9.526;2022-08-24T08:01:47;27.90;85.90
12039;DHT22;6080;48.818;9.526;2022-08-24T08:04:14;28.10;84.00
12039;DHT22;6080;48.818;9.526;2022-08-24T08:06:41;28.10;82.90
12039;DHT22;6080;48.818;9.526;2022-08-24T08:09:07;28.40;81.90
12039;DHT22;6080;48.818;9.526;2022-08-24T08:11:33;28.70;80.90
12039;DHT22;6080;48.818;9.526;2022-08-24T08:14:00;28.80;79.30
12039;DHT22;6080;48.818;9.526;2022-08-24T08:16:26;28.50;80.50
12039;DHT22;6080;48.818;9.526;2022-08-24T08:18:52;27.80;80.10
12039;DHT22;6080;48.818;9.526;2022-08-24T08:21:18;27.50;81.50
12039;DHT22;6080;48.818;9.526;2022-08-24T08:24:03;27.60;81.30
12039;DHT22;6080;48.818;9.526;2022-08-24T08:26:42;28.00;80.40
12039;DHT22;6080;48.818;9.526;2022-08-24T08:29:08;28.40;79.10
12039;DHT22;6080;48.818;9.526;2022-08-24T08:31:36;28.10;78.00
12039;DHT22;6080;48.818;9.526;2022-08-24T08:34:03;28.00;78.30
12039;DHT22;6080;48.818;9.526;2022-08-24T08:36:30;28.30;77.60
12039;DHT22;6080;48.818;9.526;2022-08-24T08:38:56;28.50;77.30
12039;DHT22;6080;48.818;9.526;2022-08-24T08:44:51;28.80;75.70
12039;DHT22;6080;48.818;9.526;2022-08-24T08:50:07;30.00;71.40
12039;DHT22;6080;48.818;9.526;2022-08-24T09:01:14;29.70;69.80
12039;DHT22;6080;48.818;9.526;2022-08-24T09:07:07;29.80;70.60
12039;DHT22;6080;48.818;9.526;2022-08-24T09:14:55;29.10;72.20
12039;DHT22;6080;48.818;9.526;2022-08-24T09:17:54;28.90;74.20
12039;DHT22;6080;48.818;9.526;2022-08-24T09:23:02;29.80;72.50
12039;DHT22;6080;48.818;9.526;2022-08-24T09:26:01;29.60;72.70
12039;DHT22;6080;48.818;9.526;2022-08-24T09:28:39;29.90;72.30
12039;DHT22;6080;48.818;9.526;2022-08-24T09:39:33;30.70;68.80
12039;DHT22;6080;48.818;9.526;2022-08-24T09:58:12;30.90;65.50
12039;DHT22;6080;48.818;9.526;2022-08-24T10:00:49;30.80;66.00
12039;DHT22;6080;48.818;9.526;2022-08-24T10:09:13;30.70;64.40
12039;DHT22;6080;48.818;9.526;2022-08-24T10:14:52;31.80;62.50
12039;DHT22;6080;48.818;9.526;2022-08-24T10:25:39;32.60;60.10
12039;DHT22;6080;48.818;9.526;2022-08-24T10:39:14;33.90;54.90
12039;DHT22;6080;48.818;9.526;2022-08-24T10:45:41;34.80;52.70
12039;DHT22;6080;48.818;9.526;2022-08-24T10:53:49;34.20;49.90
12039;DHT22;6080;48.818;9.526;2022-08-24T10:56:26;33.40;51.30
12039;DHT22;6080;48.818;9.526;2022-08-24T11:02:06;33.60;53.40
12039;DHT22;6080;48.818;9.526;2022-08-24T11:04:33;33.50;53.20
12039;DHT22;6080;48.818;9.526;2022-08-24T11:07:20;33.80;53.30
12039;DHT22;6080;48.818;9.526;2022-08-24T11:09:51;34.30;52.70
12039;DHT22;6080;48.818;9.526;2022-08-24T11:20:27;33.20;48.40
12039;DHT22;6080;48.818;9.526;2022-08-24T11:25:32;32.70;46.50
12039;DHT22;6080;48.818;9.526;2022-08-24T11:30:30;33.10;46.80
12039;DHT22;6080;48.818;9.526;2022-08-24T11:33:02;33.00;46.60
12039;DHT22;6080;48.818;9.526;2022-08-24T11:38:07;33.30;48.80
12039;DHT22;6080;48.818;9.526;2022-08-24T11:40:38;33.00;48.60
12039;DHT22;6080;48.818;9.526;2022-08-24T11:51:04;33.30;45.40
12039;DHT22;6080;48.818;9.526;2022-08-24T11:58:54;35.00;45.50
12039;DHT22;6080;48.818;9.526;2022-08-24T12:09:39;35.20;44.50
12039;DHT22;6080;48.818;9.526;2022-08-24T12:15:09;34.90;44.90
12039;DHT22;6080;48.818;9.526;2022-08-24T12:17:43;35.00;44.90
12039;DHT22;6080;48.818;9.526;2022-08-24T12:20:36;34.20;45.50
12039;DHT22;6080;48.818;9.526;2022-08-24T12:23:16;34.20;46.20
12039;DHT22;6080;48.818;9.526;2022-08-24T12:25:46;34.10;47.50
12039;DHT22;6080;48.818;9.526;2022-08-24T12:28:31;34.50;47.20
12039;DHT22;6080;48.818;9.526;2022-08-24T12:31:09;34.60;47.80
12039;DHT22;6080;48.818;9.526;2022-08-24T12:33:37;34.60;46.80
12039;DHT22;6080;48.818;9.526;2022-08-24T12:36:14;34.90;44.90
12039;DHT22;6080;48.818;9.526;2022-08-24T12:38:48;34.80;46.70
12039;DHT22;6080;48.818;9.526;2022-08-24T12:41:22;34.40;49.20
12039;DHT22;6080;48.818;9.526;2022-08-24T12:43:53;34.70;49.00
12039;DHT22;6080;48.818;9.526;2022-08-24T12:46:24;35.10;48.50
12039;DHT22;6080;48.818;9.526;2022-08-24T12:48:53;36.10;46.30
12039;DHT22;6080;48.818;9.526;2022-08-24T12:59:49;35.50;46.60
12039;DHT22;6080;48.818;9.526;2022-08-24T13:20:29;33.60;51.80
12039;DHT22;6080;48.818;9.526;2022-08-24T13:23:22;34.50;50.60
12039;DHT22;6080;48.818;9.526;2022-08-24T13:26:23;34.40;50.40
12039;DHT22;6080;48.818;9.526;2022-08-24T13:28:53;34.10;51.50
12039;DHT22;6080;48.818;9.526;2022-08-24T13:31:30;33.60;50.50
12039;DHT22;6080;48.818;9.526;2022-08-24T13:34:35;33.30;51.70
12039;DHT22;6080;48.818;9.526;2022-08-24T13:39:54;32.10;53.30
12039;DHT22;6080;48.818;9.526;2022-08-24T13:45:15;32.20;53.80
12039;DHT22;6080;48.818;9.526;2022-08-24T13:57:05;31.60;55.80
12039;DHT22;6080;48.818;9.526;2022-08-24T13:59:54;31.50;56.20
12039;DHT22;6080;48.818;9.526;2022-08-24T14:22:05;34.00;52.40
12039;DHT22;6080;48.818;9.526;2022-08-24T14:27:45;32.90;53.90
12039;DHT22;6080;48.818;9.526;2022-08-24T14:35:38;32.30;56.10
12039;DHT22;6080;48.818;9.526;2022-08-24T14:41:17;33.20;54.50
12039;DHT22;6080;48.818;9.526;2022-08-24T14:46:52;34.40;53.00
12039;DHT22;6080;48.818;9.526;2022-08-24T14:49:23;34.90;51.70
12039;DHT22;6080;48.818;9.526;2022-08-24T15:06:48;34.10;53.50
12039;DHT22;6080;48.818;9.526;2022-08-24T15:09:29;34.60;52.70
12039;DHT22;6080;48.818;9.526;2022-08-24T15:12:31;34.70;52.60
12039;DHT22;6080;48.818;9.526;2022-08-24T15:15:14;33.40;53.90
12039;DHT22;6080;48.818;9.526;2022-08-24T15:18:20;32.70;55.00
12039;DHT22;6080;48.818;9.526;2022-08-24T15:26:11;32.50;57.00
12039;DHT22;6080;48.818;9.526;2022-08-24T15:28:48;34.00;54.20
12039;DHT22;6080;48.818;9.526;2022-08-24T15:31:21;34.80;52.80
12039;DHT22;6080;48.818;9.526;2022-08-24T15:33:59;35.10;52.40
12039;DHT22;6080;48.818;9.526;2022-08-24T15:36:26;35.50;52.10
12039;DHT22;6080;48.818;9.526;2022-08-24T15:38:55;35.10;51.60
12039;DHT22;6080;48.818;9.526;2022-08-24T15:41:30;34.40;52.40
12039;DHT22;6080;48.818;9.526;2022-08-24T15:43:59;34.00;52.90
12039;DHT22;6080;48.818;9.526;2022-08-24T15:46:32;33.40;53.80
12039;DHT22;6080;48.818;9.526;2022-08-24T15:49:26;32.70;55.50
12039;DHT22;6080;48.818;9.526;2022-08-24T15:52:05;32.20;56.40
12039;DHT22;6080;48.818;9.526;2022-08-24T15:54:44;32.10;57.00
12039;DHT22;6080;48.818;9.526;2022-08-24T15:59:54;32.10;57.40
12039;DHT22;6080;48.818;9.526;2022-08-24T16:02:31;32.20;57.30
12039;DHT22;6080;48.818;9.526;2022-08-24T16:10:57;31.70;57.40
12039;DHT22;6080;48.818;9.526;2022-08-24T16:13:29;31.40;57.60
12039;DHT22;6080;48.818;9.526;2022-08-24T16:16:03;31.10;58.60
12039;DHT22;6080;48.818;9.526;2022-08-24T16:19:17;30.80;59.20
12039;DHT22;6080;48.818;9.526;2022-08-24T16:21:53;30.10;60.60
12039;DHT22;6080;48.818;9.526;2022-08-24T16:26:56;29.40;62.90
12039;DHT22;6080;48.818;9.526;2022-08-24T16:29:50;29.20;63.00
12039;DHT22;6080;48.818;9.526;2022-08-24T16:32:25;29.10;63.50
12039;DHT22;6080;48.818;9.526;2022-08-24T16:35:17;29.00;64.30
12039;DHT22;6080;48.818;9.526;2022-08-24T16:37:46;28.90;64.60
12039;DHT22;6080;48.818;9.526;2022-08-24T16:40:11;28.80;65.00
12039;DHT22;6080;48.818;9.526;2022-08-24T16:42:38;28.70;66.40
12039;DHT22;6080;48.818;9.526;2022-08-24T16:45:06;28.60;65.70
12039;DHT22;6080;48.818;9.526;2022-08-24T16:47:35;28.50;66.00
12039;DHT22;6080;48.818;9.526;2022-08-24T16:50:03;28.50;66.50
12039;DHT22;6080;48.818;9.526;2022-08-24T16:52:29;28.50;66.90
12039;DHT22;6080;48.818;9.526;2022-08-24T16:54:56;28.40;67.30
12039;DHT22;6080;48.818;9.526;2022-08-24T16:57:24;28.30;67.60
12039;DHT22;6080;48.818;9.526;2022-08-24T16:59:53;28.30;67.60
12039;DHT22;6080;48.818;9.526;2022-08-24T17:02:20;28.20;67.70
12039;DHT22;6080;48.818;9.526;2022-08-24T17:04:47;28.00;68.00
12039;DHT22;6080;48.818;9.526;2022-08-24T17:07:16;28.00;68.20
12039;DHT22;6080;48.818;9.526;2022-08-24T17:09:45;28.00;68.70
12039;DHT22;6080;48.818;9.526;2022-08-24T17:12:12;27.90;68.50
12039;DHT22;6080;48.818;9.526;2022-08-24T17:14:38;27.90;69.10
12039;DHT22;6080;48.818;9.526;2022-08-24T17:17:08;27.80;69.50
12039;DHT22;6080;48.818;9.526;2022-08-24T17:19:35;27.80;70.00
12039;DHT22;6080;48.818;9.526;2022-08-24T17:22:02;27.80;70.50
12039;DHT22;6080;48.818;9.526;2022-08-24T17:24:29;27.70;71.20
12039;DHT22;6080;48.818;9.526;2022-08-24T17:26:55;27.60;71.30
12039;DHT22;6080;48.818;9.526;2022-08-24T17:29:21;27.50;71.50
12039;DHT22;6080;48.818;9.526;2022-08-24T17:31:48;27.40;71.60
12039;DHT22;6080;48.818;9.526;2022-08-24T17:34:16;27.30;71.90
12039;DHT22;6080;48.818;9.526;2022-08-24T17:36:50;27.20;72.20
12039;DHT22;6080;48.818;9.526;2022-08-24T17:39:17;27.10;72.10
12039;DHT22;6080;48.818;9.526;2022-08-24T17:41:43;27.10;72.40
12039;DHT22;6080;48.818;9.526;2022-08-24T17:44:11;27.00;72.60
12039;DHT22;6080;48.818;9.526;2022-08-24T17:46:39;27.00;72.80
12039;DHT22;6080;48.818;9.526;2022-08-24T17:49:06;26.90;73.30
12039;DHT22;6080;48.818;9.526;2022-08-24T17:51:32;26.90;73.60
12039;DHT22;6080;48.818;9.526;2022-08-24T17:53:59;26.80;73.80
12039;DHT22;6080;48.818;9.526;2022-08-24T17:56:28;26.70;74.20
12039;DHT22;6080;48.818;9.526;2022-08-24T17:58:56;26.70;74.50
12039;DHT22;6080;48.818;9.526;2022-08-24T18:01:41;26.60;75.10
12039;DHT22;6080;48.818;9.526;2022-08-24T18:04:07;26.50;75.50
12039;DHT22;6080;48.818;9.526;2022-08-24T18:06:33;26.40;75.90
12039;DHT22;6080;48.818;9.526;2022-08-24T18:09:03;26.40;76.40
12039;DHT22;6080;48.818;9.526;2022-08-24T18:11:30;26.30;76.70
12039;DHT22;6080;48.818;9.526;2022-08-24T18:13:56;26.20;78.70
12039;DHT22;6080;48.818;9.526;2022-08-24T18:16:23;26.10;80.00
12039;DHT22;6080;48.818;9.526;2022-08-24T18:18:53;25.90;81.50
12039;DHT22;6080;48.818;9.526;2022-08-24T18:21:20;25.80;81.90
12039;DHT22;6080;48.818;9.526;2022-08-24T18:23:47;25.60;82.50
12039;DHT22;6080;48.818;9.526;2022-08-24T18:26:24;25.50;83.40
12039;DHT22;6080;48.818;9.526;2022-08-24T18:28:51;25.30;84.70
12039;DHT22;6080;48.818;9.526;2022-08-24T18:31:19;25.20;85.50
12039;DHT22;6080;48.818;9.526;2022-08-24T18:33:46;25.10;85.70
12039;DHT22;6080;48.818;9.526;2022-08-24T18:36:11;24.90;86.60
12039;DHT22;6080;48.818;9.526;2022-08-24T18:38:37;24.80;87.50
12039;DHT22;6080;48.818;9.526;2022-08-24T18:41:05;24.70;88.60
12039;DHT22;6080;48.818;9.526;2022-08-24T18:43:31;24.50;89.10
12039;DHT22;6080;48.818;9.526;2022-08-24T18:45:58;24.40;90.00
12039;DHT22;6080;48.818;9.526;2022-08-24T18:48:24;24.30;90.30
12039;DHT22;6080;48.818;9.526;2022-08-24T18:50:50;24.20;90.60
12039;DHT22;6080;48.818;9.526;2022-08-24T18:53:16;24.00;90.90
12039;DHT22;6080;48.818;9.526;2022-08-24T18:55:45;24.00;91.50
12039;DHT22;6080;48.818;9.526;2022-08-24T18:58:15;23.80;91.90
12039;DHT22;6080;48.818;9.526;2022-08-24T19:00:41;23.70;92.30
12039;DHT22;6080;48.818;9.526;2022-08-24T19:03:08;23.70;92.70
12039;DHT22;6080;48.818;9.526;2022-08-24T19:05:35;23.60;93.00
12039;DHT22;6080;48.818;9.526;2022-08-24T19:08:05;23.50;93.80
12039;DHT22;6080;48.818;9.526;2022-08-24T19:10:36;23.40;94.20
12039;DHT22;6080;48.818;9.526;2022-08-24T19:13:07;23.40;94.90
12039;DHT22;6080;48.818;9.526;2022-08-24T19:15:33;23.30;95.30
12039;DHT22;6080;48.818;9.526;2022-08-24T19:17:59;23.20;96.40
12039;DHT22;6080;48.818;9.526;2022-08-24T19:20:25;23.10;96.70
12039;DHT22;6080;48.818;9.526;2022-08-24T19:22:52;23.10;97.80
12039;DHT22;6080;48.818;9.526;2022-08-24T19:25:24;23.00;98.60
12039;DHT22;6080;48.818;9.526;2022-08-24T19:27:52;22.90;99.70
12039;DHT22;6080;48.818;9.526;2022-08-24T19:30:20;22.90;99.90
12039;DHT22;6080;48.818;9.526;2022-08-24T19:32:46;22.80;99.90
12039;DHT22;6080;48.818;9.526;2022-08-24T19:35:13;22.70;99.90
12039;DHT22;6080;48.818;9.526;2022-08-24T19:37:41;22.70;99.90
12039;DHT22;6080;48.818;9.526;2022-08-24T19:40:07;22.60;99.90
12039;DHT22;6080;48.818;9.526;2022-08-24T19:42:34;22.50;99.90
12039;DHT22;6080;48.818;9.526;2022-08-24T19:45:00;22.40;99.90
12039;DHT22;6080;48.818;9.526;2022-08-24T19:47:45;22.40;99.90
12039;DHT22;6080;48.818;9.526;2022-08-24T19:50:11;22.30;99.90
12039;DHT22;6080;48.818;9.526;2022-08-24T19:52:39;22.30;99.90
12039;DHT22;6080;48.818;9.526;2022-08-24T19:55:07;22.30;99.90
12039;DHT22;6080;48.818;9.526;2022-08-24T19:57:46;22.20;99.90
12039;DHT22;6080;48.818;9.526;2022-08-24T20:02:53;22.00;99.90